sensor_id;sensor_type;location;lat;lon;timestamp;P1;durP1;ratioP1;P2;durP2;ratioP2
26588;SDS011;14235;48.532;8.722;2023-09-18T00:00:51;3.70;;;2.47;;
26588;SDS011;14235;48.532;8.722;2023-09-18T00:03:17;4.53;;;2.88;;
26588;SDS011;14235;48.532;8.722;2023-09-18T00:05:48;2.67;;;2.47;;
26588;SDS011;14235;48.532;8.722;2023-09-18T00:08:14;7.93;;;2.88;;
26588;SDS011;14235;48.532;8.722;2023-09-18T00:10:40;3.70;;;2.70;;
26588;SDS011;14235;48.532;8.722;2023-09-18T00:13:06;3.38;;;2.65;;
26588;SDS011;14235;48.532;8.722;2023-09-18T00:15:32;6.65;;;2.85;;
26588;SDS011;14235;48.532;8.722;2023-09-18T00:17:58;4.80;;;2.70;;
26588;SDS011;14235;48.532;8.722;2023-09-18T00:20:24;3.13;;;2.78;;
26588;SDS011;14235;48.532;8.722;2023-09-18T00:22:53;4.80;;;2.72;;
26588;SDS011;14235;48.532;8.722;2023-09-18T00:25:19;5.30;;;2.83;;
26588;SDS011;14235;48.532;8.722;2023-09-18T00:27:45;3.17;;;2.58;;
26588;SDS011;14235;48.532;8.722;2023-09-18T00:30:11;2.78;;;2.50;;
26588;SDS011;14235;48.532;8.722;2023-09-18T00:32:37;5.18;;;2.72;;
26588;SDS011;14235;48.532;8.722;2023-09-18T00:35:03;3.35;;;2.97;;
26588;SDS011;14235;48.532;8.722;2023-09-18T00:37:29;7.20;;;3.15;;
26588;SDS011;14235;48.532;8.722;2023-09-18T00:39:55;3.10;;;2.58;;
26588;SDS011;14235;48.532;8.722;2023-09-18T00:42:21;3.08;;;2.53;;
26588;SDS011;14235;48.532;8.722;2023-09-18T00:44:48;2.75;;;2.55;;
26588;SDS011;14235;48.532;8.722;2023-09-18T00:47:15;3.33;;;2.53;;
26588;SDS011;14235;48.532;8.722;2023-09-18T00:49:41;5.45;;;2.83;;
26588;SDS011;14235;48.532;8.722;2023-09-18T00:52:08;4.47;;;2.65;;
26588;SDS011;14235;48.532;8.722;2023-09-18T00:54:35;4.47;;;3.03;;
26588;SDS011;14235;48.532;8.722;2023-09-18T00:57:01;4.35;;;2.88;;
26588;SDS011;14235;48.532;8.722;2023-09-18T00:59:28;7.68;;;2.55;;
26588;SDS011;14235;48.532;8.722;2023-09-18T01:01:54;5.88;;;3.10;;
26588;SDS011;14235;48.532;8.722;2023-09-18T01:04:21;6.38;;;2.85;;
26588;SDS011;14235;48.532;8.722;2023-09-18T01:06:47;6.88;;;2.90;;
26588;SDS011;14235;48.532;8.722;2023-09-18T01:09:14;5.10;;;2.45;;
26588;SDS011;14235;48.532;8.722;2023-09-18T01:14:11;5.38;;;2.80;;
26588;SDS011;14235;48.532;8.722;2023-09-18T01:16:44;3.55;;;2.58;;
26588;SDS011;14235;48.532;8.722;2023-09-18T01:19:15;5.30;;;2.80;;
26588;SDS011;14235;48.532;8.722;2023-09-18T01:21:41;3.15;;;2.78;;
26588;SDS011;14235;48.532;8.722;2023-09-18T01:24:07;4.65;;;2.85;;
26588;SDS011;14235;48.532;8.722;2023-09-18T01:26:33;4.88;;;2.50;;
26588;SDS011;14235;48.532;8.722;2023-09-18T01:28:59;8.85;;;2.85;;
26588;SDS011;14235;48.532;8.722;2023-09-18T01:31:25;4.82;;;2.53;;
26588;SDS011;14235;48.532;8.722;2023-09-18T01:33:51;7.95;;;2.78;;
26588;SDS011;14235;48.532;8.722;2023-09-18T01:36:18;6.78;;;2.50;;
26588;SDS011;14235;48.532;8.722;2023-09-18T01:38:45;7.68;;;3.30;;
26588;SDS011;14235;48.532;8.722;2023-09-18T01:41:11;5.75;;;3.03;;
26588;SDS011;14235;48.532;8.722;2023-09-18T01:43:37;6.70;;;2.90;;
26588;SDS011;14235;48.532;8.722;2023-09-18T01:46:03;5.95;;;2.75;;
26588;SDS011;14235;48.532;8.722;2023-09-18T01:48:29;6.70;;;2.75;;
26588;SDS011;14235;48.532;8.722;2023-09-18T01:50:55;4.82;;;2.90;;
26588;SDS011;14235;48.532;8.722;2023-09-18T01:53:20;6.90;;;2.88;;
26588;SDS011;14235;48.532;8.722;2023-09-18T01:55:46;9.38;;;2.88;;
26588;SDS011;14235;48.532;8.722;2023-09-18T01:58:13;6.95;;;2.88;;
26588;SDS011;14235;48.532;8.722;2023-09-18T02:00:39;8.68;;;2.80;;
26588;SDS011;14235;48.532;8.722;2023-09-18T02:03:05;4.90;;;2.63;;
26588;SDS011;14235;48.532;8.722;2023-09-18T02:05:30;6.68;;;2.88;;
26588;SDS011;14235;48.532;8.722;2023-09-18T02:07:57;7.22;;;2.83;;
26588;SDS011;14235;48.532;8.722;2023-09-18T02:10:23;7.57;;;2.60;;
26588;SDS011;14235;48.532;8.722;2023-09-18T02:12:48;5.95;;;2.75;;
26588;SDS011;14235;48.532;8.722;2023-09-18T02:15:14;11.15;;;3.05;;
26588;SDS011;14235;48.532;8.722;2023-09-18T02:17:41;6.18;;;3.13;;
26588;SDS011;14235;48.532;8.722;2023-09-18T02:20:07;5.85;;;2.70;;
26588;SDS011;14235;48.532;8.722;2023-09-18T02:22:37;5.60;;;3.10;;
26588;SDS011;14235;48.532;8.722;2023-09-18T02:25:06;5.65;;;2.72;;
26588;SDS011;14235;48.532;8.722;2023-09-18T02:27:58;7.60;;;3.17;;
26588;SDS011;14235;48.532;8.722;2023-09-18T02:30:24;7.53;;;2.75;;
26588;SDS011;14235;48.532;8.722;2023-09-18T02:32:50;5.68;;;2.92;;
26588;SDS011;14235;48.532;8.722;2023-09-18T02:35:16;8.52;;;2.67;;
26588;SDS011;14235;48.532;8.722;2023-09-18T02:37:42;7.28;;;2.92;;
26588;SDS011;14235;48.532;8.722;2023-09-18T02:40:08;8.38;;;2.83;;
26588;SDS011;14235;48.532;8.722;2023-09-18T02:42:34;7.72;;;3.00;;
26588;SDS011;14235;48.532;8.722;2023-09-18T02:45:00;7.78;;;3.10;;
26588;SDS011;14235;48.532;8.722;2023-09-18T02:47:26;7.72;;;2.92;;
26588;SDS011;14235;48.532;8.722;2023-09-18T02:49:52;7.15;;;2.75;;
26588;SDS011;14235;48.532;8.722;2023-09-18T02:52:18;7.18;;;2.70;;
26588;SDS011;14235;48.532;8.722;2023-09-18T02:54:44;8.43;;;2.55;;
26588;SDS011;14235;48.532;8.722;2023-09-18T02:57:10;5.53;;;2.65;;
26588;SDS011;14235;48.532;8.722;2023-09-18T02:59:36;8.00;;;3.20;;
26588;SDS011;14235;48.532;8.722;2023-09-18T03:02:02;7.50;;;2.85;;
26588;SDS011;14235;48.532;8.722;2023-09-18T03:04:29;7.65;;;2.92;;
26588;SDS011;14235;48.532;8.722;2023-09-18T03:06:55;7.20;;;2.67;;
26588;SDS011;14235;48.532;8.722;2023-09-18T03:09:21;5.10;;;2.60;;
26588;SDS011;14235;48.532;8.722;2023-09-18T03:11:47;6.22;;;2.47;;
26588;SDS011;14235;48.532;8.722;2023-09-18T03:14:13;7.72;;;2.33;;
26588;SDS011;14235;48.532;8.722;2023-09-18T03:16:39;6.35;;;2.70;;
26588;SDS011;14235;48.532;8.722;2023-09-18T03:19:05;3.28;;;2.17;;
26588;SDS011;14235;48.532;8.722;2023-09-18T03:21:31;4.45;;;2.38;;
26588;SDS011;14235;48.532;8.722;2023-09-18T03:23:58;6.95;;;2.78;;
26588;SDS011;14235;48.532;8.722;2023-09-18T03:26:24;6.38;;;2.60;;
26588;SDS011;14235;48.532;8.722;2023-09-18T03:28:50;6.78;;;2.42;;
26588;SDS011;14235;48.532;8.722;2023-09-18T03:31:16;7.95;;;2.42;;
26588;SDS011;14235;48.532;8.722;2023-09-18T03:33:42;5.05;;;2.78;;
26588;SDS011;14235;48.532;8.722;2023-09-18T03:36:08;7.50;;;2.40;;
26588;SDS011;14235;48.532;8.722;2023-09-18T03:38:36;8.52;;;2.38;;
26588;SDS011;14235;48.532;8.722;2023-09-18T03:41:02;6.35;;;2.60;;
26588;SDS011;14235;48.532;8.722;2023-09-18T03:43:28;6.30;;;2.38;;
26588;SDS011;14235;48.532;8.722;2023-09-18T03:45:54;9.10;;;2.67;;
26588;SDS011;14235;48.532;8.722;2023-09-18T03:48:20;6.40;;;2.83;;
26588;SDS011;14235;48.532;8.722;2023-09-18T03:50:49;5.05;;;2.50;;
26588;SDS011;14235;48.532;8.722;2023-09-18T03:53:15;6.07;;;2.45;;
26588;SDS011;14235;48.532;8.722;2023-09-18T03:55:42;7.13;;;2.72;;
26588;SDS011;14235;48.532;8.722;2023-09-18T03:58:08;6.93;;;2.65;;
26588;SDS011;14235;48.532;8.722;2023-09-18T04:00:35;7.10;;;2.50;;
26588;SDS011;14235;48.532;8.722;2023-09-18T04:03:01;6.00;;;2.22;;
26588;SDS011;14235;48.532;8.722;2023-09-18T04:05:27;6.95;;;2.63;;
26588;SDS011;14235;48.532;8.722;2023-09-18T04:07:53;4.43;;;1.90;;
26588;SDS011;14235;48.532;8.722;2023-09-18T04:10:19;7.00;;;2.97;;
26588;SDS011;14235;48.532;8.722;2023-09-18T04:12:47;10.52;;;2.55;;
26588;SDS011;14235;48.532;8.722;2023-09-18T04:15:15;7.22;;;2.60;;
26588;SDS011;14235;48.532;8.722;2023-09-18T04:17:43;6.57;;;2.58;;
26588;SDS011;14235;48.532;8.722;2023-09-18T04:20:09;6.47;;;2.47;;
26588;SDS011;14235;48.532;8.722;2023-09-18T04:22:35;7.10;;;2.58;;
26588;SDS011;14235;48.532;8.722;2023-09-18T04:25:01;7.68;;;2.58;;
26588;SDS011;14235;48.532;8.722;2023-09-18T04:27:30;4.10;;;2.53;;
26588;SDS011;14235;48.532;8.722;2023-09-18T04:29:56;6.32;;;2.30;;
26588;SDS011;14235;48.532;8.722;2023-09-18T04:32:23;5.68;;;2.60;;
26588;SDS011;14235;48.532;8.722;2023-09-18T04:34:49;5.68;;;2.40;;
26588;SDS011;14235;48.532;8.722;2023-09-18T04:37:14;7.20;;;2.40;;
26588;SDS011;14235;48.532;8.722;2023-09-18T04:39:40;4.63;;;2.55;;
26588;SDS011;14235;48.532;8.722;2023-09-18T04:42:07;4.53;;;2.45;;
26588;SDS011;14235;48.532;8.722;2023-09-18T04:44:32;7.13;;;2.70;;
26588;SDS011;14235;48.532;8.722;2023-09-18T04:46:58;9.10;;;2.50;;
26588;SDS011;14235;48.532;8.722;2023-09-18T04:49:24;4.93;;;2.22;;
26588;SDS011;14235;48.532;8.722;2023-09-18T04:51:51;6.57;;;2.47;;
26588;SDS011;14235;48.532;8.722;2023-09-18T04:54:17;7.65;;;2.58;;
26588;SDS011;14235;48.532;8.722;2023-09-18T04:56:43;4.68;;;2.47;;
26588;SDS011;14235;48.532;8.722;2023-09-18T04:59:09;7.97;;;2.58;;
26588;SDS011;14235;48.532;8.722;2023-09-18T05:01:34;5.57;;;2.65;;
26588;SDS011;14235;48.532;8.722;2023-09-18T05:04:00;7.97;;;2.63;;
26588;SDS011;14235;48.532;8.722;2023-09-18T05:06:26;4.07;;;2.30;;
26588;SDS011;14235;48.532;8.722;2023-09-18T05:08:53;5.30;;;2.42;;
26588;SDS011;14235;48.532;8.722;2023-09-18T05:11:20;6.72;;;2.35;;
26588;SDS011;14235;48.532;8.722;2023-09-18T05:13:46;3.22;;;2.20;;
26588;SDS011;14235;48.532;8.722;2023-09-18T05:16:12;6.10;;;2.67;;
26588;SDS011;14235;48.532;8.722;2023-09-18T05:18:38;3.15;;;2.53;;
26588;SDS011;14235;48.532;8.722;2023-09-18T05:21:06;9.25;;;2.60;;
26588;SDS011;14235;48.532;8.722;2023-09-18T05:23:32;7.22;;;2.53;;
26588;SDS011;14235;48.532;8.722;2023-09-18T05:25:58;6.68;;;2.17;;
26588;SDS011;14235;48.532;8.722;2023-09-18T05:28:25;4.38;;;2.30;;
26588;SDS011;14235;48.532;8.722;2023-09-18T05:30:51;6.13;;;2.70;;
26588;SDS011;14235;48.532;8.722;2023-09-18T05:33:18;4.60;;;2.80;;
26588;SDS011;14235;48.532;8.722;2023-09-18T05:35:45;5.47;;;2.80;;
26588;SDS011;14235;48.532;8.722;2023-09-18T05:38:11;4.07;;;2.67;;
26588;SDS011;14235;48.532;8.722;2023-09-18T05:40:42;5.03;;;2.50;;
26588;SDS011;14235;48.532;8.722;2023-09-18T05:43:10;5.63;;;2.30;;
26588;SDS011;14235;48.532;8.722;2023-09-18T05:45:37;5.55;;;2.78;;
26588;SDS011;14235;48.532;8.722;2023-09-18T05:48:03;6.80;;;2.60;;
26588;SDS011;14235;48.532;8.722;2023-09-18T05:50:35;5.95;;;2.72;;
26588;SDS011;14235;48.532;8.722;2023-09-18T05:53:02;4.63;;;2.47;;
26588;SDS011;14235;48.532;8.722;2023-09-18T05:55:31;4.40;;;2.10;;
26588;SDS011;14235;48.532;8.722;2023-09-18T05:57:57;6.72;;;2.53;;
26588;SDS011;14235;48.532;8.722;2023-09-18T06:00:23;3.15;;;2.10;;
26588;SDS011;14235;48.532;8.722;2023-09-18T06:02:50;4.22;;;2.53;;
26588;SDS011;14235;48.532;8.722;2023-09-18T06:05:16;5.65;;;2.80;;
26588;SDS011;14235;48.532;8.722;2023-09-18T06:07:46;6.15;;;2.78;;
26588;SDS011;14235;48.532;8.722;2023-09-18T06:10:12;5.47;;;2.13;;
26588;SDS011;14235;48.532;8.722;2023-09-18T06:12:39;4.15;;;2.40;;
26588;SDS011;14235;48.532;8.722;2023-09-18T06:15:08;5.65;;;2.00;;
26588;SDS011;14235;48.532;8.722;2023-09-18T06:17:35;2.80;;;2.47;;
26588;SDS011;14235;48.532;8.722;2023-09-18T06:20:01;3.70;;;2.20;;
26588;SDS011;14235;48.532;8.722;2023-09-18T06:22:28;6.50;;;2.50;;
26588;SDS011;14235;48.532;8.722;2023-09-18T06:24:54;5.70;;;2.58;;
26588;SDS011;14235;48.532;8.722;2023-09-18T06:27:20;6.38;;;2.85;;
26588;SDS011;14235;48.532;8.722;2023-09-18T06:29:47;5.15;;;2.20;;
26588;SDS011;14235;48.532;8.722;2023-09-18T06:32:13;5.15;;;2.22;;
26588;SDS011;14235;48.532;8.722;2023-09-18T06:34:39;5.43;;;2.40;;
26588;SDS011;14235;48.532;8.722;2023-09-18T06:37:08;4.97;;;2.30;;
26588;SDS011;14235;48.532;8.722;2023-09-18T06:39:37;6.47;;;2.70;;
26588;SDS011;14235;48.532;8.722;2023-09-18T06:42:03;4.47;;;2.58;;
26588;SDS011;14235;48.532;8.722;2023-09-18T06:44:29;4.22;;;2.05;;
26588;SDS011;14235;48.532;8.722;2023-09-18T06:46:55;4.22;;;2.20;;
26588;SDS011;14235;48.532;8.722;2023-09-18T06:49:21;4.22;;;2.50;;
26588;SDS011;14235;48.532;8.722;2023-09-18T06:51:47;5.35;;;2.35;;
26588;SDS011;14235;48.532;8.722;2023-09-18T06:54:13;5.82;;;2.65;;
26588;SDS011;14235;48.532;8.722;2023-09-18T06:56:40;4.43;;;2.20;;
26588;SDS011;14235;48.532;8.722;2023-09-18T06:59:06;4.53;;;1.88;;
26588;SDS011;14235;48.532;8.722;2023-09-18T07:01:32;6.78;;;2.17;;
26588;SDS011;14235;48.532;8.722;2023-09-18T07:03:58;5.88;;;2.08;;
26588;SDS011;14235;48.532;8.722;2023-09-18T07:06:25;3.05;;;1.60;;
26588;SDS011;14235;48.532;8.722;2023-09-18T07:08:51;2.13;;;1.75;;
26588;SDS011;14235;48.532;8.722;2023-09-18T07:11:18;4.15;;;1.90;;
26588;SDS011;14235;48.532;8.722;2023-09-18T07:13:44;3.55;;;1.70;;
26588;SDS011;14235;48.532;8.722;2023-09-18T07:16:10;4.38;;;1.83;;
26588;SDS011;14235;48.532;8.722;2023-09-18T07:18:37;5.13;;;2.00;;
26588;SDS011;14235;48.532;8.722;2023-09-18T07:21:03;3.22;;;1.73;;
26588;SDS011;14235;48.532;8.722;2023-09-18T07:23:29;2.88;;;1.50;;
26588;SDS011;14235;48.532;8.722;2023-09-18T07:25:56;4.75;;;1.88;;
26588;SDS011;14235;48.532;8.722;2023-09-18T07:28:25;4.00;;;1.90;;
26588;SDS011;14235;48.532;8.722;2023-09-18T07:30:51;4.20;;;1.90;;
26588;SDS011;14235;48.532;8.722;2023-09-18T07:33:17;3.10;;;1.52;;
26588;SDS011;14235;48.532;8.722;2023-09-18T07:35:48;4.60;;;1.65;;
26588;SDS011;14235;48.532;8.722;2023-09-18T07:38:16;5.60;;;1.60;;
26588;SDS011;14235;48.532;8.722;2023-09-18T07:40:44;3.53;;;1.50;;
26588;SDS011;14235;48.532;8.722;2023-09-18T07:43:11;4.63;;;1.60;;
26588;SDS011;14235;48.532;8.722;2023-09-18T07:45:40;6.00;;;1.70;;
26588;SDS011;14235;48.532;8.722;2023-09-18T07:48:06;2.95;;;1.75;;
26588;SDS011;14235;48.532;8.722;2023-09-18T07:50:32;4.68;;;1.48;;
26588;SDS011;14235;48.532;8.722;2023-09-18T07:52:59;7.03;;;1.50;;
26588;SDS011;14235;48.532;8.722;2023-09-18T07:55:25;5.10;;;1.70;;
26588;SDS011;14235;48.532;8.722;2023-09-18T07:57:51;4.68;;;1.50;;
26588;SDS011;14235;48.532;8.722;2023-09-18T08:00:18;5.35;;;1.50;;
26588;SDS011;14235;48.532;8.722;2023-09-18T08:02:47;3.22;;;1.63;;
26588;SDS011;14235;48.532;8.722;2023-09-18T08:05:15;2.92;;;1.25;;
26588;SDS011;14235;48.532;8.722;2023-09-18T08:07:41;3.97;;;1.63;;
26588;SDS011;14235;48.532;8.722;2023-09-18T08:10:07;1.52;;;1.20;;
26588;SDS011;14235;48.532;8.722;2023-09-18T08:12:34;2.38;;;1.20;;
26588;SDS011;14235;48.532;8.722;2023-09-18T08:15:00;3.65;;;1.40;;
26588;SDS011;14235;48.532;8.722;2023-09-18T08:17:27;3.45;;;1.67;;
26588;SDS011;14235;48.532;8.722;2023-09-18T08:19:53;3.67;;;1.50;;
26588;SDS011;14235;48.532;8.722;2023-09-18T08:22:20;2.13;;;1.65;;
26588;SDS011;14235;48.532;8.722;2023-09-18T08:24:47;2.08;;;1.35;;
26588;SDS011;14235;48.532;8.722;2023-09-18T08:27:16;4.05;;;1.50;;
26588;SDS011;14235;48.532;8.722;2023-09-18T08:29:43;3.00;;;1.50;;
26588;SDS011;14235;48.532;8.722;2023-09-18T08:32:09;3.10;;;1.73;;
26588;SDS011;14235;48.532;8.722;2023-09-18T08:34:35;2.20;;;1.40;;
26588;SDS011;14235;48.532;8.722;2023-09-18T08:37:02;5.68;;;1.10;;
26588;SDS011;14235;48.532;8.722;2023-09-18T08:39:28;2.40;;;1.50;;
26588;SDS011;14235;48.532;8.722;2023-09-18T08:41:57;4.95;;;1.67;;
26588;SDS011;14235;48.532;8.722;2023-09-18T08:44:23;2.85;;;1.50;;
26588;SDS011;14235;48.532;8.722;2023-09-18T08:46:53;3.13;;;1.30;;
26588;SDS011;14235;48.532;8.722;2023-09-18T08:49:20;3.97;;;1.88;;
26588;SDS011;14235;48.532;8.722;2023-09-18T08:51:46;3.33;;;1.60;;
26588;SDS011;14235;48.532;8.722;2023-09-18T08:54:13;3.63;;;1.45;;
26588;SDS011;14235;48.532;8.722;2023-09-18T08:56:39;4.75;;;1.58;;
26588;SDS011;14235;48.532;8.722;2023-09-18T08:59:05;1.77;;;1.60;;
26588;SDS011;14235;48.532;8.722;2023-09-18T09:01:31;3.65;;;1.30;;
26588;SDS011;14235;48.532;8.722;2023-09-18T09:03:57;3.95;;;1.20;;
26588;SDS011;14235;48.532;8.722;2023-09-18T09:06:25;3.10;;;1.60;;
26588;SDS011;14235;48.532;8.722;2023-09-18T09:08:51;3.72;;;1.70;;
26588;SDS011;14235;48.532;8.722;2023-09-18T09:11:17;3.33;;;1.70;;
26588;SDS011;14235;48.532;8.722;2023-09-18T09:13:44;4.15;;;1.38;;
26588;SDS011;14235;48.532;8.722;2023-09-18T09:16:11;2.97;;;1.50;;
26588;SDS011;14235;48.532;8.722;2023-09-18T09:18:45;3.78;;;1.90;;
26588;SDS011;14235;48.532;8.722;2023-09-18T09:21:12;1.65;;;1.50;;
26588;SDS011;14235;48.532;8.722;2023-09-18T09:23:56;4.55;;;1.83;;
26588;SDS011;14235;48.532;8.722;2023-09-18T09:26:22;2.60;;;1.60;;
26588;SDS011;14235;48.532;8.722;2023-09-18T09:28:49;3.67;;;1.50;;
26588;SDS011;14235;48.532;8.722;2023-09-18T09:31:28;3.92;;;1.95;;
26588;SDS011;14235;48.532;8.722;2023-09-18T09:33:55;3.00;;;1.80;;
26588;SDS011;14235;48.532;8.722;2023-09-18T09:36:22;4.95;;;1.85;;
26588;SDS011;14235;48.532;8.722;2023-09-18T09:38:49;2.97;;;1.85;;
26588;SDS011;14235;48.532;8.722;2023-09-18T09:41:19;3.35;;;1.70;;
26588;SDS011;14235;48.532;8.722;2023-09-18T09:43:46;3.75;;;1.77;;
26588;SDS011;14235;48.532;8.722;2023-09-18T09:46:16;3.08;;;1.50;;
26588;SDS011;14235;48.532;8.722;2023-09-18T09:48:59;2.63;;;1.40;;
26588;SDS011;14235;48.532;8.722;2023-09-18T09:51:26;2.00;;;1.80;;
26588;SDS011;14235;48.532;8.722;2023-09-18T09:53:52;1.80;;;1.55;;
26588;SDS011;14235;48.532;8.722;2023-09-18T09:56:18;2.67;;;1.50;;
26588;SDS011;14235;48.532;8.722;2023-09-18T09:58:59;3.15;;;1.30;;
26588;SDS011;14235;48.532;8.722;2023-09-18T10:01:27;4.05;;;1.52;;
26588;SDS011;14235;48.532;8.722;2023-09-18T10:03:53;1.35;;;1.30;;
26588;SDS011;14235;48.532;8.722;2023-09-18T10:06:20;2.70;;;1.60;;
26588;SDS011;14235;48.532;8.722;2023-09-18T10:08:47;2.10;;;1.67;;
26588;SDS011;14235;48.532;8.722;2023-09-18T10:11:13;2.15;;;1.30;;
26588;SDS011;14235;48.532;8.722;2023-09-18T10:16:11;5.22;;;1.77;;
26588;SDS011;14235;48.532;8.722;2023-09-18T10:18:50;1.80;;;1.42;;
26588;SDS011;14235;48.532;8.722;2023-09-18T10:21:35;2.17;;;1.33;;
26588;SDS011;14235;48.532;8.722;2023-09-18T10:24:09;1.85;;;1.42;;
26588;SDS011;14235;48.532;8.722;2023-09-18T10:26:41;3.13;;;1.20;;
26588;SDS011;14235;48.532;8.722;2023-09-18T10:29:12;2.53;;;1.33;;
26588;SDS011;14235;48.532;8.722;2023-09-18T10:31:38;3.75;;;1.50;;
26588;SDS011;14235;48.532;8.722;2023-09-18T10:34:06;3.13;;;1.80;;
26588;SDS011;14235;48.532;8.722;2023-09-18T10:36:32;3.67;;;1.90;;
26588;SDS011;14235;48.532;8.722;2023-09-18T10:39:00;1.95;;;1.25;;
26588;SDS011;14235;48.532;8.722;2023-09-18T10:41:27;4.30;;;1.42;;
26588;SDS011;14235;48.532;8.722;2023-09-18T10:43:56;2.03;;;1.70;;
26588;SDS011;14235;48.532;8.722;2023-09-18T10:46:34;2.55;;;1.80;;
26588;SDS011;14235;48.532;8.722;2023-09-18T10:49:00;3.75;;;1.80;;
26588;SDS011;14235;48.532;8.722;2023-09-18T10:51:28;3.08;;;1.85;;
26588;SDS011;14235;48.532;8.722;2023-09-18T11:12:55;2.53;;;1.30;;
26588;SDS011;14235;48.532;8.722;2023-09-18T11:16:14;3.83;;;1.90;;
26588;SDS011;14235;48.532;8.722;2023-09-18T11:22:32;3.58;;;1.90;;
26588;SDS011;14235;48.532;8.722;2023-09-18T11:25:42;2.42;;;1.63;;
26588;SDS011;14235;48.532;8.722;2023-09-18T11:28:48;2.95;;;1.58;;
26588;SDS011;14235;48.532;8.722;2023-09-18T11:31:48;3.15;;;1.73;;
26588;SDS011;14235;48.532;8.722;2023-09-18T11:34:29;3.00;;;1.77;;
26588;SDS011;14235;48.532;8.722;2023-09-18T11:37:20;2.35;;;1.73;;
26588;SDS011;14235;48.532;8.722;2023-09-18T11:40:28;4.95;;;1.65;;
26588;SDS011;14235;48.532;8.722;2023-09-18T11:43:27;2.88;;;1.55;;
26588;SDS011;14235;48.532;8.722;2023-09-18T11:46:11;4.22;;;1.80;;
26588;SDS011;14235;48.532;8.722;2023-09-18T11:48:57;3.42;;;1.58;;
26588;SDS011;14235;48.532;8.722;2023-09-18T11:51:45;1.65;;;1.52;;
26588;SDS011;14235;48.532;8.722;2023-09-18T11:54:13;2.47;;;1.77;;
26588;SDS011;14235;48.532;8.722;2023-09-18T11:57:03;2.28;;;1.45;;
26588;SDS011;14235;48.532;8.722;2023-09-18T11:59:53;3.22;;;1.75;;
26588;SDS011;14235;48.532;8.722;2023-09-18T12:02:56;2.85;;;1.60;;
26588;SDS011;14235;48.532;8.722;2023-09-18T12:06:02;1.33;;;1.23;;
26588;SDS011;14235;48.532;8.722;2023-09-18T12:08:35;3.38;;;1.48;;
26588;SDS011;14235;48.532;8.722;2023-09-18T12:11:07;1.88;;;1.60;;
26588;SDS011;14235;48.532;8.722;2023-09-18T12:14:01;2.20;;;1.60;;
26588;SDS011;14235;48.532;8.722;2023-09-18T12:16:41;1.63;;;1.40;;
26588;SDS011;14235;48.532;8.722;2023-09-18T12:19:20;4.22;;;1.55;;
26588;SDS011;14235;48.532;8.722;2023-09-18T12:21:49;3.15;;;1.30;;
26588;SDS011;14235;48.532;8.722;2023-09-18T12:24:22;3.83;;;1.63;;
26588;SDS011;14235;48.532;8.722;2023-09-18T12:27:08;2.25;;;1.50;;
26588;SDS011;14235;48.532;8.722;2023-09-18T12:29:55;1.77;;;1.45;;
26588;SDS011;14235;48.532;8.722;2023-09-18T12:32:51;2.25;;;1.52;;
26588;SDS011;14235;48.532;8.722;2023-09-18T12:35:59;2.95;;;1.25;;
26588;SDS011;14235;48.532;8.722;2023-09-18T12:39:05;1.40;;;1.30;;
26588;SDS011;14235;48.532;8.722;2023-09-18T12:41:36;3.67;;;1.60;;
26588;SDS011;14235;48.532;8.722;2023-09-18T12:44:22;4.10;;;1.60;;
26588;SDS011;14235;48.532;8.722;2023-09-18T12:47:37;2.22;;;1.40;;
26588;SDS011;14235;48.532;8.722;2023-09-18T12:50:51;1.90;;;1.63;;
26588;SDS011;14235;48.532;8.722;2023-09-18T12:53:40;3.38;;;1.92;;
26588;SDS011;14235;48.532;8.722;2023-09-18T12:56:39;2.13;;;1.80;;
26588;SDS011;14235;48.532;8.722;2023-09-18T12:59:41;4.60;;;1.55;;
26588;SDS011;14235;48.532;8.722;2023-09-18T13:02:31;2.22;;;1.50;;
26588;SDS011;14235;48.532;8.722;2023-09-18T13:05:21;2.90;;;1.50;;
26588;SDS011;14235;48.532;8.722;2023-09-18T13:11:32;3.95;;;1.52;;
26588;SDS011;14235;48.532;8.722;2023-09-18T13:14:00;3.10;;;1.55;;
26588;SDS011;14235;48.532;8.722;2023-09-18T13:16:26;2.40;;;1.20;;
26588;SDS011;14235;48.532;8.722;2023-09-18T13:18:52;2.90;;;1.25;;
26588;SDS011;14235;48.532;8.722;2023-09-18T13:21:18;1.75;;;1.42;;
26588;SDS011;14235;48.532;8.722;2023-09-18T13:23:47;3.67;;;1.40;;
26588;SDS011;14235;48.532;8.722;2023-09-18T13:26:13;1.20;;;1.10;;
26588;SDS011;14235;48.532;8.722;2023-09-18T13:28:39;3.85;;;1.63;;
26588;SDS011;14235;48.532;8.722;2023-09-18T13:31:05;1.63;;;1.30;;
26588;SDS011;14235;48.532;8.722;2023-09-18T13:33:32;4.22;;;1.13;;
26588;SDS011;14235;48.532;8.722;2023-09-18T13:35:59;3.97;;;1.55;;
26588;SDS011;14235;48.532;8.722;2023-09-18T13:38:25;2.65;;;1.10;;
26588;SDS011;14235;48.532;8.722;2023-09-18T13:40:52;1.95;;;1.40;;
26588;SDS011;14235;48.532;8.722;2023-09-18T13:43:19;4.47;;;1.60;;
26588;SDS011;14235;48.532;8.722;2023-09-18T13:45:48;1.20;;;1.15;;
26588;SDS011;14235;48.532;8.722;2023-09-18T13:48:16;1.75;;;1.40;;
26588;SDS011;14235;48.532;8.722;2023-09-18T13:50:43;2.97;;;1.30;;
26588;SDS011;14235;48.532;8.722;2023-09-18T13:53:09;3.08;;;1.25;;
26588;SDS011;14235;48.532;8.722;2023-09-18T13:55:35;1.17;;;1.05;;
26588;SDS011;14235;48.532;8.722;2023-09-18T13:58:01;1.35;;;1.00;;
26588;SDS011;14235;48.532;8.722;2023-09-18T14:00:31;1.42;;;1.23;;
26588;SDS011;14235;48.532;8.722;2023-09-18T14:02:57;2.00;;;1.50;;
26588;SDS011;14235;48.532;8.722;2023-09-18T14:05:24;2.38;;;1.15;;
26588;SDS011;14235;48.532;8.722;2023-09-18T14:07:51;3.05;;;1.13;;
26588;SDS011;14235;48.532;8.722;2023-09-18T14:10:22;1.48;;;1.23;;
26588;SDS011;14235;48.532;8.722;2023-09-18T14:12:48;1.75;;;1.48;;
26588;SDS011;14235;48.532;8.722;2023-09-18T14:15:15;1.10;;;1.10;;
26588;SDS011;14235;48.532;8.722;2023-09-18T14:17:41;4.53;;;1.27;;
26588;SDS011;14235;48.532;8.722;2023-09-18T14:20:08;1.70;;;1.20;;
26588;SDS011;14235;48.532;8.722;2023-09-18T14:22:35;2.25;;;1.20;;
26588;SDS011;14235;48.532;8.722;2023-09-18T14:25:02;1.80;;;1.27;;
26588;SDS011;14235;48.532;8.722;2023-09-18T14:27:30;1.75;;;1.30;;
26588;SDS011;14235;48.532;8.722;2023-09-18T14:29:57;2.25;;;1.20;;
26588;SDS011;14235;48.532;8.722;2023-09-18T14:32:23;1.13;;;1.02;;
26588;SDS011;14235;48.532;8.722;2023-09-18T14:34:49;1.33;;;1.13;;
26588;SDS011;14235;48.532;8.722;2023-09-18T14:37:15;2.38;;;1.33;;
26588;SDS011;14235;48.532;8.722;2023-09-18T14:39:41;2.55;;;1.25;;
26588;SDS011;14235;48.532;8.722;2023-09-18T14:42:08;1.17;;;1.00;;
26588;SDS011;14235;48.532;8.722;2023-09-18T14:44:34;1.83;;;1.20;;
26588;SDS011;14235;48.532;8.722;2023-09-18T14:47:05;2.67;;;1.48;;
26588;SDS011;14235;48.532;8.722;2023-09-18T14:49:31;1.48;;;1.23;;
26588;SDS011;14235;48.532;8.722;2023-09-18T14:51:57;1.67;;;1.33;;
26588;SDS011;14235;48.532;8.722;2023-09-18T14:54:23;1.98;;;1.50;;
26588;SDS011;14235;48.532;8.722;2023-09-18T14:56:49;1.20;;;1.10;;
26588;SDS011;14235;48.532;8.722;2023-09-18T14:59:15;1.35;;;1.10;;
26588;SDS011;14235;48.532;8.722;2023-09-18T15:01:42;1.58;;;1.10;;
26588;SDS011;14235;48.532;8.722;2023-09-18T15:04:08;2.20;;;1.40;;
26588;SDS011;14235;48.532;8.722;2023-09-18T15:06:34;1.42;;;1.20;;
26588;SDS011;14235;48.532;8.722;2023-09-18T15:09:00;3.15;;;1.48;;
26588;SDS011;14235;48.532;8.722;2023-09-18T15:11:28;2.33;;;1.02;;
26588;SDS011;14235;48.532;8.722;2023-09-18T15:13:54;4.13;;;1.35;;
26588;SDS011;14235;48.532;8.722;2023-09-18T15:16:20;3.17;;;1.40;;
26588;SDS011;14235;48.532;8.722;2023-09-18T15:18:46;2.72;;;1.15;;
26588;SDS011;14235;48.532;8.722;2023-09-18T15:21:14;1.58;;;1.27;;
26588;SDS011;14235;48.532;8.722;2023-09-18T15:23:40;1.95;;;1.17;;
26588;SDS011;14235;48.532;8.722;2023-09-18T15:26:09;1.15;;;1.00;;
26588;SDS011;14235;48.532;8.722;2023-09-18T15:28:35;1.77;;;1.38;;
26588;SDS011;14235;48.532;8.722;2023-09-18T15:31:02;2.20;;;1.48;;
26588;SDS011;14235;48.532;8.722;2023-09-18T15:33:28;2.45;;;1.10;;